Time;durP1;ratioP1;P1;durP2;ratioP2;P2;SDS_P1;SDS_P2;PMS_P1;PMS_P2;Temp;Humidity;BMP_temperature;BMP_pressure;BME280_temperature;BME280_humidity;BME280_pressure;Samples;Min_cycle;Max_cycle;Signal;HPM_P1;HPM_P2
2022/01/22 00:02:06;;;;;;;85.47;48.25;;;5.00;99.90;;;;;;4936876;29;20172;-86
2022/01/22 00:04:35;;;;;;;87.78;38.80;;;5.10;99.90;;;;;;4936679;29;20185;-86
2022/01/22 00:07:02;;;;;;;95.05;59.28;;;5.10;99.90;;;;;;4936727;29;20177;-86
2022/01/22 00:09:36;;;;;;;94.47;55.10;;;5.10;99.90;;;;;;4937269;29;20169;-87
2022/01/22 00:12:26;;;;;;;91.65;51.22;;;5.00;99.90;;;;;;4935705;29;20164;-86
2022/01/22 00:15:02;;;;;;;;;;;;;;;;;;;;;
2022/01/22 00:17:35;;;;;;;92.43;60.65;;;5.00;99.90;;;;;;4937891;29;20156;-87
2022/01/22 00:20:07;;;;;;;93.53;67.10;;;5.00;99.90;;;;;;4936916;29;20188;-87
2022/01/22 00:22:43;;;;;;;96.78;73.03;;;5.00;99.90;;;;;;4936157;29;20212;-87
2022/01/22 00:25:23;;;;;;;98.28;67.13;;;5.00;99.90;;;;;;4936363;29;20291;-87
2022/01/22 00:27:51;;;;;;;102.32;70.45;;;5.00;99.90;;;;;;4936215;29;20211;-86
2022/01/22 00:30:26;;;;;;;95.95;69.57;;;5.00;99.90;;;;;;4935848;29;20177;-86
2022/01/22 00:33:02;;;;;;;103.82;68.93;;;5.00;99.90;;;;;;4935543;29;20202;-86
2022/01/22 00:35:33;;;;;;;92.07;56.30;;;5.00;99.90;;;;;;4935953;29;20195;-86
2022/01/22 00:38:00;;;;;;;96.50;63.15;;;5.00;99.90;;;;;;4935519;29;20680;-86
2022/01/22 00:40:26;;;;;;;109.47;79.72;;;5.00;99.90;;;;;;4935149;29;20668;-86
2022/01/22 00:42:52;;;;;;;104.15;92.82;;;5.00;99.90;;;;;;4935661;29;20169;-87
2022/01/22 00:45:21;;;;;;;98.03;64.63;;;5.00;99.90;;;;;;4934935;29;20200;-86
2022/01/22 00:47:48;;;;;;;105.63;85.97;;;4.90;99.90;;;;;;4935086;29;20455;-86
2022/01/22 00:50:17;;;;;;;106.72;91.03;;;4.90;99.90;;;;;;4936669;29;20252;-86
2022/01/22 00:52:47;;;;;;;98.43;80.90;;;4.90;99.90;;;;;;4935278;29;20304;-86
2022/01/22 00:55:14;;;;;;;107.63;85.03;;;4.90;99.90;;;;;;4936068;29;20208;-87
2022/01/22 00:57:43;;;;;;;129.55;113.95;;;5.00;99.90;;;;;;4936568;29;20265;-86
2022/01/22 01:00:29;;;;;;;101.32;79.63;;;4.90;99.90;;;;;;4938994;29;20175;-86
2022/01/22 01:02:58;;;;;;;91.82;62.38;;;5.00;99.90;;;;;;4938977;29;20176;-86
2022/01/22 01:05:30;;;;;;;123.32;108.10;;;4.90;99.90;;;;;;4938732;29;20199;-86
2022/01/22 01:07:58;;;;;;;100.75;71.90;;;4.90;99.90;;;;;;4939556;29;20231;-87
2022/01/22 01:10:24;;;;;;;114.22;87.05;;;4.90;99.90;;;;;;4939812;29;20227;-86
2022/01/22 01:12:51;;;;;;;108.80;89.65;;;4.90;99.90;;;;;;4939477;29;20260;-86
2022/01/22 01:34:30;;;;;;;105.05;78.80;;;4.90;99.90;;;;;;5011715;23;20231;-83
2022/01/22 01:37:07;;;;;;;109.50;83.97;;;4.90;99.90;;;;;;4942618;29;20641;-83
2022/01/22 01:39:35;;;;;;;102.65;79.97;;;4.90;99.90;;;;;;4941185;29;20411;-83
2022/01/22 01:42:07;;;;;;;109.05;80.60;;;4.90;99.90;;;;;;4941685;29;20164;-83
2022/01/22 01:44:33;;;;;;;113.85;87.78;;;4.80;99.90;;;;;;4942366;29;20197;-83
2022/01/22 01:47:02;;;;;;;107.23;88.50;;;4.90;99.90;;;;;;4942623;29;20172;-83
2022/01/22 01:49:28;;;;;;;103.60;90.30;;;4.90;99.90;;;;;;4940388;29;20239;-83
2022/01/22 01:55:13;;;;;;;103.60;85.05;;;4.80;99.90;;;;;;4923467;29;20208;-83
2022/01/22 01:57:49;;;;;;;103.32;82.32;;;4.80;99.90;;;;;;4941485;29;20184;-83
2022/01/22 02:00:23;;;;;;;134.55;121.47;;;4.80;99.90;;;;;;4940754;29;20181;-84
2022/01/22 02:02:53;;;;;;;106.80;87.88;;;4.80;99.90;;;;;;4942149;29;20157;-83
2022/01/22 02:05:21;;;;;;;104.15;81.38;;;4.80;99.90;;;;;;4942362;29;20211;-83
2022/01/22 02:07:54;;;;;;;122.22;109.15;;;4.80;99.90;;;;;;4941955;29;20164;-83
2022/01/22 02:10:27;;;;;;;107.63;90.95;;;4.80;99.90;;;;;;4941653;29;20544;-83
2022/01/22 02:23:55;;;;;;;109.35;84.13;;;4.70;99.90;;;;;;4941264;29;20163;-83
2022/01/22 02:26:24;;;;;;;104.95;80.38;;;4.70;99.90;;;;;;4940551;29;20608;-83
2022/01/22 02:28:53;;;;;;;109.25;85.35;;;4.70;99.90;;;;;;4939980;29;20161;-83
2022/01/22 02:34:29;;;;;;;105.70;79.65;;;4.70;99.90;;;;;;4928914;29;20212;-83
2022/01/22 02:37:06;;;;;;;109.93;85.57;;;4.70;99.90;;;;;;4939585;29;20183;-81
2022/01/22 02:39:38;;;;;;;116.68;94.30;;;4.70;99.90;;;;;;4941346;29;20212;-83
2022/01/22 02:42:07;;;;;;;114.93;102.68;;;4.80;99.90;;;;;;4939772;29;20157;-83
2022/01/22 02:44:36;;;;;;;109.15;92.63;;;4.70;99.90;;;;;;4941284;29;20192;-83
2022/01/22 02:47:08;;;;;;;113.32;97.93;;;4.70;99.90;;;;;;4941046;29;20644;-83
2022/01/22 02:49:44;;;;;;;103.78;84.07;;;4.70;99.90;;;;;;4939981;29;20540;-83
2022/01/22 02:52:17;;;;;;;106.47;94.18;;;4.70;99.90;;;;;;4941140;29;20524;-83
2022/01/22 02:54:49;;;;;;;115.18;98.13;;;4.70;99.90;;;;;;4939816;29;20235;-83
2022/01/22 02:57:15;;;;;;;112.45;82.35;;;4.80;99.90;;;;;;4941008;29;20235;-83
2022/01/22 02:59:40;;;;;;;107.73;85.90;;;4.80;99.90;;;;;;4939512;29;20645;-83
2022/01/22 03:02:08;;;;;;;111.70;99.70;;;4.80;99.90;;;;;;4941208;29;20410;-83
2022/01/22 03:04:43;;;;;;;105.30;84.35;;;4.80;99.90;;;;;;4940694;29;20837;-83
2022/01/22 03:07:11;;;;;;;106.65;87.05;;;4.80;99.90;;;;;;4940653;29;20164;-83
2022/01/22 03:09:45;;;;;;;108.43;85.18;;;4.70;99.90;;;;;;4940576;29;20176;-84
2022/01/22 03:12:29;;;;;;;107.47;83.63;;;4.70;99.90;;;;;;4941030;29;20144;-84
2022/01/22 03:28:25;;;;;;;116.43;83.25;;;4.80;99.90;;;;;;4940735;29;20159;-83
2022/01/22 03:30:54;;;;;;;107.10;81.85;;;4.80;99.90;;;;;;4940945;29;20145;-84
2022/01/22 03:33:24;;;;;;;113.85;75.85;;;4.80;99.90;;;;;;4939455;29;20223;-83
2022/01/22 03:35:56;;;;;;;135.98;122.20;;;4.80;99.90;;;;;;4939951;29;20285;-83
2022/01/22 03:38:23;;;;;;;112.32;91.45;;;4.80;99.90;;;;;;4940016;29;20506;-83
2022/01/22 03:40:50;;;;;;;104.65;71.25;;;4.80;99.90;;;;;;4939480;29;20168;-83
2022/01/22 03:43:17;;;;;;;111.13;92.00;;;4.80;99.90;;;;;;4940022;29;20625;-83
2022/01/22 03:45:49;;;;;;;108.68;82.53;;;4.80;99.90;;;;;;4939732;29;20203;-83
2022/01/22 03:48:18;;;;;;;104.47;76.57;;;4.80;99.90;;;;;;4939698;29;20160;-84
2022/01/22 03:50:49;;;;;;;108.80;79.95;;;4.80;99.90;;;;;;4939568;29;20177;-83
2022/01/22 03:53:25;;;;;;;114.20;92.70;;;4.90;99.90;;;;;;4939600;29;20172;-83
2022/01/22 03:56:04;;;;;;;119.97;106.32;;;4.90;99.90;;;;;;4939930;29;20203;-83
2022/01/22 03:58:37;;;;;;;105.90;76.22;;;4.80;99.90;;;;;;4940044;29;20171;-83
2022/01/22 04:03:55;;;;;;;107.25;77.85;;;4.80;99.90;;;;;;4940591;29;20155;-83
2022/01/22 04:08:58;;;;;;;118.22;102.15;;;4.80;99.90;;;;;;4940026;29;20191;-83
2022/01/22 04:11:24;;;;;;;108.32;82.68;;;4.80;99.90;;;;;;4939089;29;20207;-83
2022/01/22 04:13:53;;;;;;;109.28;82.85;;;4.80;99.90;;;;;;4940376;29;20176;-83
2022/01/22 04:16:22;;;;;;;102.50;73.88;;;4.80;99.90;;;;;;4939232;29;20247;-83
2022/01/22 04:27:20;;;;;;;170.82;156.10;;;4.90;99.90;;;;;;4940810;29;20163;-83
2022/01/22 04:29:46;;;;;;;102.13;66.90;;;4.80;99.90;;;;;;4940608;29;20157;-83
2022/01/22 04:32:12;;;;;;;105.37;71.77;;;4.80;99.90;;;;;;4939096;29;20703;-83
2022/01/22 04:34:37;;;;;;;108.40;74.90;;;4.90;99.90;;;;;;4941575;29;20212;-83
2022/01/22 04:37:03;;;;;;;114.27;91.70;;;4.80;99.90;;;;;;4944025;29;20204;-83
2022/01/22 04:39:29;;;;;;;108.10;90.90;;;4.90;99.90;;;;;;4942538;29;20169;-83
2022/01/22 04:41:56;;;;;;;104.93;76.87;;;4.80;99.90;;;;;;4944451;29;20537;-83
2022/01/22 04:44:30;;;;;;;119.30;93.85;;;4.90;99.90;;;;;;4943493;29;20420;-83
2022/01/22 04:47:12;;;;;;;101.55;66.28;;;4.90;99.90;;;;;;4941696;29;20171;-83
2022/01/22 04:52:41;;;;;;;106.45;73.80;;;4.80;99.90;;;;;;4943380;29;20535;-83
2022/01/22 04:55:08;;;;;;;105.53;77.70;;;4.80;99.90;;;;;;4943024;29;20192;-83
2022/01/22 04:57:40;;;;;;;103.45;69.35;;;4.80;99.90;;;;;;4943050;29;20172;-83
2022/01/22 05:00:10;;;;;;;107.10;81.55;;;4.80;99.90;;;;;;4941776;29;20177;-83
2022/01/22 05:02:35;;;;;;;115.43;81.88;;;4.90;99.90;;;;;;4943183;29;20164;-83
2022/01/22 05:05:02;;;;;;;112.73;83.50;;;4.90;99.90;;;;;;4943115;29;20184;-83
2022/01/22 05:07:31;;;;;;;111.90;75.88;;;4.90;99.90;;;;;;4942875;29;20191;-83
2022/01/22 05:10:01;;;;;;;108.03;67.45;;;4.90;99.90;;;;;;4941387;29;20172;-83
2022/01/22 05:12:27;;;;;;;110.07;72.50;;;4.80;99.90;;;;;;4942641;29;20513;-84
2022/01/22 05:14:53;;;;;;;104.23;70.73;;;4.90;99.90;;;;;;4942891;29;20200;-83
2022/01/22 05:17:19;;;;;;;116.80;89.23;;;4.90;99.90;;;;;;4942751;29;20168;-83
2022/01/22 05:20:02;;;;;;;108.35;83.22;;;4.90;99.90;;;;;;4941136;29;20197;-83
2022/01/22 05:22:49;;;;;;;119.93;95.47;;;4.90;99.90;;;;;;4942666;29;20568;-84
2022/01/22 05:26:08;;;;;;;118.30;90.28;;;4.90;99.90;;;;;;4941355;29;20611;-83
2022/01/22 05:28:47;;;;;;;106.18;77.78;;;4.90;99.90;;;;;;4937020;29;20189;-83
2022/01/22 05:39:14;;;;;;;122.18;101.60;;;4.90;99.90;;;;;;4942342;29;20167;-83
2022/01/22 05:41:46;;;;;;;108.28;74.07;;;4.90;99.90;;;;;;4942451;29;20160;-83
2022/01/22 05:44:12;;;;;;;112.80;89.10;;;5.00;99.90;;;;;;4940255;29;20192;-83
2022/01/22 05:46:41;;;;;;;114.90;71.80;;;4.90;99.90;;;;;;4941702;29;20169;-84
2022/01/22 05:49:06;;;;;;;121.47;84.40;;;5.00;99.90;;;;;;4942244;29;20415;-84
2022/01/22 05:51:33;;;;;;;108.10;80.53;;;4.90;99.90;;;;;;4941370;29;20173;-83
2022/01/22 05:59:51;;;;;;;112.57;81.97;;;5.00;99.90;;;;;;4941825;29;20156;-83
2022/01/22 06:02:19;;;;;;;109.20;89.83;;;5.00;99.90;;;;;;4941604;29;20168;-83
2022/01/22 06:04:48;;;;;;;112.28;81.50;;;5.00;99.90;;;;;;4941748;29;20251;-83
2022/01/22 06:07:14;;;;;;;106.63;72.93;;;5.00;99.90;;;;;;4941630;29;20168;-83
2022/01/22 06:09:52;;;;;;;113.10;78.97;;;5.00;99.90;;;;;;4940352;29;20188;-83
2022/01/22 06:12:31;;;;;;;117.05;81.63;;;5.10;99.90;;;;;;4940343;29;20256;-83
2022/01/22 06:14:57;;;;;;;121.45;76.93;;;5.10;99.90;;;;;;4941195;29;20680;-83
2022/01/22 06:17:23;;;;;;;106.40;68.83;;;5.10;99.90;;;;;;4940482;29;20207;-83
2022/01/22 06:19:49;;;;;;;120.00;101.77;;;5.10;99.90;;;;;;4941865;29;20411;-83
2022/01/22 06:22:14;;;;;;;114.67;79.13;;;5.10;99.90;;;;;;4940264;29;20173;-83
2022/01/22 06:24:40;;;;;;;120.97;76.03;;;5.10;99.90;;;;;;4941725;29;20189;-83
2022/01/22 06:27:08;;;;;;;111.07;80.43;;;5.10;99.90;;;;;;4940483;29;20212;-83
2022/01/22 06:29:34;;;;;;;107.50;69.03;;;5.10;99.90;;;;;;4941874;29;20224;-83
2022/01/22 06:32:00;;;;;;;110.73;80.20;;;5.10;99.90;;;;;;4941306;29;20168;-83
2022/01/22 06:34:25;;;;;;;111.93;81.07;;;5.00;99.90;;;;;;4941079;29;20628;-83
2022/01/22 06:36:51;;;;;;;112.77;85.80;;;5.10;99.90;;;;;;4941433;29;20165;-84
2022/01/22 06:39:21;;;;;;;106.47;68.73;;;5.10;99.90;;;;;;4941586;29;20172;-83
2022/01/22 06:41:47;;;;;;;110.45;88.75;;;5.10;99.90;;;;;;4939883;29;20586;-82
2022/01/22 06:44:15;;;;;;;120.07;85.23;;;5.10;99.90;;;;;;4941154;29;20180;-83
2022/01/22 06:46:43;;;;;;;110.75;81.40;;;5.20;99.90;;;;;;4941491;29;20416;-83
2022/01/22 06:49:08;;;;;;;117.90;77.80;;;5.20;99.90;;;;;;4941759;29;20168;-82
2022/01/22 06:51:34;;;;;;;117.33;74.87;;;5.20;99.90;;;;;;4942376;29;20243;-83
2022/01/22 06:54:02;;;;;;;116.17;84.97;;;5.20;99.90;;;;;;4941123;29;20416;-83
2022/01/22 06:56:29;;;;;;;111.13;75.15;;;5.20;99.90;;;;;;4939739;29;20456;-83
2022/01/22 06:58:57;;;;;;;112.10;82.78;;;5.20;99.90;;;;;;4940486;29;20165;-83
2022/01/22 07:01:23;;;;;;;121.47;87.50;;;5.20;99.90;;;;;;4940067;29;20251;-83
2022/01/22 07:03:48;;;;;;;114.70;88.97;;;5.20;99.90;;;;;;4941425;29;20203;-83
2022/01/22 07:06:14;;;;;;;118.30;79.90;;;5.20;99.90;;;;;;4941106;29;20416;-83
2022/01/22 07:08:40;;;;;;;112.43;71.70;;;5.20;99.90;;;;;;4939907;29;20234;-83
2022/01/22 07:11:06;;;;;;;120.53;83.23;;;5.20;99.90;;;;;;4941785;29;20286;-83
2022/01/22 07:13:32;;;;;;;112.17;75.93;;;5.20;99.90;;;;;;4941129;29;20203;-83
2022/01/22 07:15:58;;;;;;;110.55;77.38;;;5.20;99.90;;;;;;4940680;29;20464;-83
2022/01/22 07:18:28;;;;;;;117.97;80.67;;;5.20;99.90;;;;;;4940792;29;20175;-85
2022/01/22 07:20:54;;;;;;;110.97;81.07;;;5.20;99.90;;;;;;4940936;29;20164;-84
2022/01/22 07:26:05;;;;;;;121.05;84.72;;;5.20;99.90;;;;;;4940799;29;20893;-83
2022/01/22 07:28:31;;;;;;;122.53;92.82;;;5.30;99.90;;;;;;4940965;29;20157;-83
2022/01/22 07:30:59;;;;;;;116.03;83.33;;;5.30;99.90;;;;;;4940140;29;20248;-83
2022/01/22 07:33:38;;;;;;;117.30;78.03;;;5.30;99.90;;;;;;5004136;23;20224;-88
2022/01/22 07:36:05;;;;;;;111.90;80.93;;;5.30;99.90;;;;;;4939963;29;20207;-88
2022/01/22 07:38:37;;;;;;;111.75;75.93;;;5.20;99.90;;;;;;4940822;29;20629;-88
2022/01/22 07:41:07;;;;;;;117.63;85.70;;;5.30;99.90;;;;;;4939603;29;20204;-88
2022/01/22 07:43:34;;;;;;;128.52;85.57;;;5.30;99.90;;;;;;4939338;29;20210;-87
2022/01/22 07:46:03;;;;;;;110.70;76.35;;;5.40;99.90;;;;;;4940099;29;20217;-88
2022/01/22 07:48:32;;;;;;;114.30;75.60;;;5.30;99.90;;;;;;4939052;29;20263;-88
2022/01/22 07:51:07;;;;;;;116.10;71.30;;;5.40;99.90;;;;;;4938245;29;20671;-87
2022/01/22 07:53:41;;;;;;;112.57;65.97;;;5.30;99.90;;;;;;4939221;29;20559;-88
2022/01/22 07:56:23;;;;;;;;;;;;;;;;;;;;;
2022/01/22 07:58:52;;;;;;;118.20;79.45;;;5.40;99.90;;;;;;4939718;29;20175;-87
2022/01/22 08:01:25;;;;;;;117.65;82.38;;;5.30;99.90;;;;;;4938992;29;20544;-88
2022/01/22 08:06:19;;;;;;;111.27;86.27;;;5.40;99.90;;;;;;4961058;23;20238;-88
2022/01/22 08:08:47;;;;;;;108.93;70.60;;;5.40;99.90;;;;;;4941478;29;20161;-87
2022/01/22 08:11:14;;;;;;;130.43;87.80;;;5.40;99.90;;;;;;4943008;29;20168;-87
2022/01/22 08:13:56;;;;;;;;;;;;;;;;;;;;;
2022/01/22 08:16:25;;;;;;;119.90;89.13;;;5.50;99.90;;;;;;4924224;29;20443;-87
2022/01/22 08:19:03;;;;;;;132.80;110.05;;;5.50;99.90;;;;;;4938431;29;20169;-88
2022/01/22 08:21:33;;;;;;;118.70;86.63;;;5.50;99.90;;;;;;4939043;29;20525;-88
2022/01/22 08:24:04;;;;;;;120.05;88.47;;;5.60;99.90;;;;;;4938972;29;20224;-88
2022/01/22 08:26:35;;;;;;;115.32;76.80;;;5.50;99.90;;;;;;4923853;29;20161;-88
2022/01/22 08:29:06;;;;;;;121.00;76.53;;;5.50;99.90;;;;;;4924166;29;20625;-88
2022/01/22 08:37:55;;;;;;;125.00;87.53;;;5.60;99.90;;;;;;4924043;29;20200;-88
2022/01/22 08:40:33;;;;;;;118.63;76.88;;;5.60;99.90;;;;;;4922274;29;20182;-88
2022/01/22 08:43:29;;;;;;;113.82;81.28;;;5.60;99.90;;;;;;4927234;29;20253;-88
2022/01/22 08:49:22;;;;;;;115.03;74.72;;;5.60;99.90;;;;;;4928178;29;20672;-89
2022/01/22 08:51:54;;;;;;;119.13;79.50;;;5.70;99.90;;;;;;4929246;29;20150;-88
2022/01/22 08:54:20;;;;;;;115.68;82.55;;;5.80;99.90;;;;;;4944951;29;20679;-88
2022/01/22 08:56:46;;;;;;;116.65;88.93;;;5.80;99.90;;;;;;4945131;29;20173;-88
2022/01/22 08:59:12;;;;;;;125.03;92.47;;;5.80;99.90;;;;;;4944413;29;20260;-88
2022/01/22 09:01:41;;;;;;;120.95;78.35;;;5.80;99.90;;;;;;4943448;29;20513;-87
2022/01/22 09:04:14;;;;;;;117.72;86.03;;;5.90;99.90;;;;;;4942669;29;20185;-89
2022/01/22 09:06:42;;;;;;;118.30;80.10;;;5.90;99.90;;;;;;4942658;29;20165;-88
2022/01/22 09:09:12;;;;;;;115.53;87.57;;;5.90;99.90;;;;;;4928686;29;20162;-88
2022/01/22 09:11:41;;;;;;;115.80;78.85;;;5.90;99.90;;;;;;4944335;29;20162;-88
2022/01/22 09:14:30;;;;;;;113.53;76.82;;;5.90;99.90;;;;;;4927918;29;20312;-88
2022/01/22 09:16:56;;;;;;;116.32;87.47;;;6.00;99.90;;;;;;4928923;29;20181;-88
2022/01/22 09:19:32;;;;;;;122.95;96.80;;;6.10;99.90;;;;;;4927078;29;20169;-88
2022/01/22 09:22:09;;;;;;;114.00;78.75;;;6.00;99.90;;;;;;4943180;29;20168;-88
2022/01/22 09:24:38;;;;;;;116.65;78.88;;;6.00;99.90;;;;;;4942887;29;20205;-88
2022/01/22 09:27:05;;;;;;;114.53;73.90;;;6.10;99.90;;;;;;4943926;29;20544;-88
2022/01/22 09:29:36;;;;;;;116.40;81.10;;;6.10;99.90;;;;;;4943325;29;20173;-88
2022/01/22 09:32:02;;;;;;;115.20;80.53;;;6.20;99.90;;;;;;4943454;29;20554;-88
2022/01/22 09:34:28;;;;;;;119.25;82.28;;;6.20;99.90;;;;;;4941481;29;20193;-88
2022/01/22 09:36:54;;;;;;;111.67;77.87;;;6.30;99.90;;;;;;4924781;29;20233;-88
2022/01/22 09:39:19;;;;;;;113.20;75.17;;;6.20;99.90;;;;;;4926338;29;20248;-88
2022/01/22 09:41:48;;;;;;;116.83;91.50;;;6.30;99.90;;;;;;4928188;29;20416;-88
2022/01/22 09:44:14;;;;;;;116.85;84.05;;;6.30;99.90;;;;;;4925841;29;20435;-88
2022/01/22 09:46:43;;;;;;;118.10;94.50;;;6.40;99.90;;;;;;4926512;29;20237;-88
2022/01/22 09:49:10;;;;;;;119.45;91.50;;;6.40;99.90;;;;;;4927171;29;20161;-88
2022/01/22 09:51:36;;;;;;;107.68;83.75;;;6.30;99.90;;;;;;4925979;29;20165;-88
2022/01/22 09:54:02;;;;;;;112.67;91.70;;;6.40;99.90;;;;;;4925468;29;20173;-88
2022/01/22 09:56:30;;;;;;;119.00;90.88;;;6.50;99.90;;;;;;4925809;29;20493;-88
2022/01/22 09:58:56;;;;;;;128.50;104.70;;;6.50;99.90;;;;;;4926969;29;20319;-88
2022/01/22 10:01:31;;;;;;;124.93;108.87;;;6.50;99.90;;;;;;4941496;29;20575;-88
2022/01/22 10:03:59;;;;;;;126.45;112.35;;;6.60;99.90;;;;;;4926823;29;20153;-89
2022/01/22 10:06:31;;;;;;;114.03;92.70;;;6.70;99.90;;;;;;4927829;29;20522;-88
2022/01/22 10:09:05;;;;;;;110.30;82.10;;;6.70;99.90;;;;;;4928304;29;20166;-88
2022/01/22 10:11:33;;;;;;;119.95;97.18;;;6.70;99.90;;;;;;4942464;29;20162;-88
2022/01/22 10:14:03;;;;;;;118.47;91.57;;;6.70;99.90;;;;;;4926155;29;20169;-88
2022/01/22 10:16:31;;;;;;;118.15;103.97;;;6.70;99.90;;;;;;4942509;29;20288;-88
2022/01/22 10:19:13;;;;;;;118.07;102.47;;;6.60;99.90;;;;;;4926052;29;20169;-88
2022/01/22 10:21:44;;;;;;;119.22;101.97;;;6.60;99.90;;;;;;4927402;29;20154;-88
2022/01/22 10:24:42;;;;;;;116.35;97.97;;;6.60;99.90;;;;;;4941864;29;20216;-88
2022/01/22 10:29:53;;;;;;;122.75;109.15;;;6.50;99.90;;;;;;4926763;29;20299;-88
2022/01/22 10:32:48;;;;;;;120.68;95.65;;;6.40;99.90;;;;;;4926016;29;20181;-88
2022/01/22 10:35:23;;;;;;;125.70;104.18;;;6.40;99.90;;;;;;4926977;29;20193;-88
2022/01/22 10:37:55;;;;;;;112.28;88.45;;;6.40;99.90;;;;;;4941357;29;20188;-88
2022/01/22 10:40:23;;;;;;;131.38;113.78;;;6.40;99.90;;;;;;4925582;29;20165;-88
2022/01/22 10:42:50;;;;;;;133.55;117.25;;;6.40;99.90;;;;;;4925096;29;20225;-88
2022/01/22 10:45:24;;;;;;;118.97;91.78;;;6.50;99.90;;;;;;4940647;29;20621;-88
2022/01/22 10:48:10;;;;;;;124.55;100.35;;;6.40;99.90;;;;;;4940615;29;20165;-88
2022/01/22 10:50:39;;;;;;;122.38;91.03;;;6.40;99.90;;;;;;4927917;29;20177;-88
2022/01/22 10:53:05;;;;;;;122.20;106.07;;;6.50;99.90;;;;;;4925599;29;20191;-88
2022/01/22 10:55:31;;;;;;;127.75;114.10;;;6.40;99.90;;;;;;4925248;29;20284;-88
2022/01/22 10:58:08;;;;;;;120.90;93.80;;;6.40;99.90;;;;;;4940363;29;20196;-88
2022/01/22 11:00:35;;;;;;;118.88;95.25;;;6.40;99.90;;;;;;4940719;29;20225;-88
2022/01/22 11:03:25;;;;;;;121.47;101.32;;;6.30;99.90;;;;;;4925629;29;20193;-88
2022/01/22 11:05:55;;;;;;;120.70;97.82;;;6.30;99.90;;;;;;4941374;29;20264;-88
2022/01/22 11:08:21;;;;;;;116.55;91.32;;;6.40;99.90;;;;;;4926656;29;20228;-88
2022/01/22 11:10:46;;;;;;;120.15;96.32;;;6.30;99.90;;;;;;4924620;29;20248;-88
2022/01/22 11:13:13;;;;;;;120.87;104.83;;;6.30;99.90;;;;;;4939412;29;20200;-87
2022/01/22 11:15:40;;;;;;;117.72;86.75;;;6.30;99.90;;;;;;4938187;29;20201;-87
2022/01/22 11:18:07;;;;;;;113.75;84.13;;;6.30;99.90;;;;;;4922324;29;20533;-87
2022/01/22 11:20:36;;;;;;;119.65;100.00;;;6.30;99.90;;;;;;4937062;29;20318;-87
2022/01/22 11:23:03;;;;;;;118.18;95.82;;;6.30;99.90;;;;;;4938202;29;20659;-87
2022/01/22 11:25:30;;;;;;;115.55;88.68;;;6.30;99.90;;;;;;4922101;29;20280;-87
2022/01/22 11:27:57;;;;;;;119.97;87.50;;;6.30;99.90;;;;;;4922634;29;20169;-87
2022/01/22 11:30:25;;;;;;;115.97;95.15;;;6.40;99.90;;;;;;4922034;29;20265;-87
2022/01/22 11:32:58;;;;;;;115.40;87.75;;;6.30;99.90;;;;;;4938128;29;20303;-88
2022/01/22 11:35:37;;;;;;;117.90;76.90;;;6.40;99.90;;;;;;4922464;29;20240;-87
2022/01/22 11:38:10;;;;;;;108.65;71.63;;;6.40;99.90;;;;;;4937408;29;20168;-88
2022/01/22 11:40:36;;;;;;;108.00;78.38;;;6.50;99.90;;;;;;4937089;29;20169;-87
2022/01/22 11:45:56;;;;;;;112.63;74.43;;;6.50;99.90;;;;;;4921061;29;20205;-87
2022/01/22 11:48:27;;;;;;;111.28;74.70;;;6.60;99.90;;;;;;4921693;29;20166;-88
2022/01/22 11:50:55;;;;;;;105.55;74.78;;;6.60;99.90;;;;;;4937010;29;20180;-87
2022/01/22 11:53:23;;;;;;;113.93;76.13;;;6.70;99.90;;;;;;4921174;29;20185;-88
2022/01/22 11:56:12;;;;;;;109.95;69.45;;;6.70;99.90;;;;;;4936603;29;20204;-88
2022/01/22 11:59:43;;;;;;;107.85;74.20;;;6.80;99.90;;;;;;4914785;29;20240;-87
2022/01/22 12:02:13;;;;;;;103.40;74.65;;;6.80;99.90;;;;;;4882670;29;20206;-88
2022/01/22 12:04:39;;;;;;;110.82;91.65;;;6.90;99.90;;;;;;4915215;29;20245;-87
2022/01/22 12:07:10;;;;;;;103.77;79.73;;;6.90;99.90;;;;;;4923513;29;20256;-87
2022/01/22 12:09:53;;;;;;;115.10;95.15;;;6.80;99.90;;;;;;4922520;29;20235;-88
2022/01/22 12:15:51;;;;;;;114.72;95.80;;;6.70;99.90;;;;;;4921972;29;20201;-88
2022/01/22 12:18:20;;;;;;;114.80;101.32;;;6.70;99.90;;;;;;4936604;29;20537;-87
2022/01/22 12:23:30;;;;;;;111.22;99.03;;;6.70;99.90;;;;;;4922321;29;20514;-87
2022/01/22 12:25:57;;;;;;;119.47;102.38;;;6.70;99.90;;;;;;4936536;29;20193;-87
2022/01/22 12:28:53;;;;;;;118.53;106.05;;;6.70;99.90;;;;;;4921886;29;20166;-87
2022/01/22 12:31:20;;;;;;;119.32;106.30;;;6.70;99.90;;;;;;4915399;29;20182;-87
2022/01/22 12:33:53;;;;;;;119.72;106.47;;;6.70;99.90;;;;;;4922095;29;20172;-87
2022/01/22 12:36:41;;;;;;;113.78;89.80;;;6.70;99.90;;;;;;4923135;29;20249;-87
2022/01/22 12:39:16;;;;;;;112.25;89.22;;;6.70;99.90;;;;;;4920850;29;20252;-87
2022/01/22 12:41:57;;;;;;;113.05;94.07;;;6.70;99.90;;;;;;4937677;29;20157;-87
2022/01/22 12:44:28;;;;;;;125.65;100.88;;;6.70;99.90;;;;;;4922718;29;20181;-88
2022/01/22 12:46:57;;;;;;;128.20;106.53;;;6.70;99.90;;;;;;4937366;29;20158;-87
2022/01/22 12:49:24;;;;;;;124.80;108.78;;;6.60;99.90;;;;;;4922055;29;20233;-87
2022/01/22 12:51:55;;;;;;;130.27;116.63;;;6.60;99.90;;;;;;4920547;29;20196;-87
2022/01/22 12:54:39;;;;;;;121.85;109.00;;;6.70;99.90;;;;;;4923353;29;20189;-88
2022/01/22 12:57:10;;;;;;;121.10;108.28;;;6.80;99.90;;;;;;4925321;29;20176;-87
2022/01/22 13:00:06;;;;;;;125.70;100.00;;;6.80;99.90;;;;;;4939554;29;20168;-88
2022/01/22 13:02:45;;;;;;;120.20;101.80;;;6.80;99.90;;;;;;4925859;29;20145;-88
2022/01/22 13:05:16;;;;;;;112.97;96.68;;;6.80;99.90;;;;;;4925207;29;20215;-88
2022/01/22 13:07:46;;;;;;;118.85;94.78;;;6.80;99.90;;;;;;4926057;29;20160;-88
2022/01/22 13:10:18;;;;;;;118.80;100.30;;;6.90;99.90;;;;;;4941508;29;20184;-88
2022/01/22 13:12:45;;;;;;;116.43;103.85;;;6.90;99.90;;;;;;4925589;29;20173;-88
2022/01/22 13:15:15;;;;;;;145.48;130.82;;;6.90;99.90;;;;;;4925333;29;20227;-88
2022/01/22 13:17:43;;;;;;;125.22;111.60;;;6.90;99.90;;;;;;4925241;29;20168;-87
2022/01/22 13:20:22;;;;;;;141.40;127.50;;;6.80;99.90;;;;;;4926531;29;20166;-88
2022/01/22 13:22:49;;;;;;;127.18;113.00;;;6.80;99.90;;;;;;4926317;29;20153;-87
2022/01/22 13:25:17;;;;;;;132.68;118.32;;;6.80;99.90;;;;;;4925515;29;20189;-88
2022/01/22 13:27:57;;;;;;;131.38;112.93;;;6.80;99.90;;;;;;4940656;29;20173;-87
2022/01/22 13:30:34;;;;;;;117.32;98.50;;;6.90;99.90;;;;;;4924407;29;20209;-87
2022/01/22 13:33:18;;;;;;;126.10;104.00;;;6.90;99.90;;;;;;4941184;29;20648;-88
2022/01/22 13:36:07;;;;;;;126.32;101.70;;;6.90;99.90;;;;;;4927527;29;20609;-88
2022/01/22 13:49:29;;;;;;;118.45;93.80;;;6.80;99.90;;;;;;4926091;29;20164;-88
2022/01/22 13:51:58;;;;;;;131.73;118.05;;;6.80;99.90;;;;;;4924480;29;20165;-88
2022/01/22 13:54:29;;;;;;;119.70;105.30;;;6.80;99.90;;;;;;4926274;29;20660;-88
2022/01/22 13:56:59;;;;;;;120.78;98.20;;;6.90;99.90;;;;;;4925568;29;20248;-88
2022/01/22 13:59:27;;;;;;;126.00;112.13;;;6.80;99.90;;;;;;4925853;29;20194;-88
2022/01/22 14:02:11;;;;;;;130.27;116.75;;;6.80;99.90;;;;;;4939894;29;20165;-87
2022/01/22 14:05:00;;;;;;;137.32;122.70;;;6.70;99.90;;;;;;4941327;29;20240;-88
2022/01/22 14:07:33;;;;;;;135.60;121.22;;;6.80;99.90;;;;;;4939421;29;20260;-87
2022/01/22 14:10:02;;;;;;;120.53;105.57;;;6.80;99.90;;;;;;4938605;29;20170;-87
2022/01/22 14:12:35;;;;;;;138.00;123.57;;;6.80;99.90;;;;;;4922332;29;20174;-87
2022/01/22 14:15:03;;;;;;;136.85;122.28;;;6.80;99.90;;;;;;4937022;29;20264;-87
2022/01/22 14:17:37;;;;;;;127.35;112.60;;;6.80;99.90;;;;;;4939224;29;20236;-87
2022/01/22 14:20:10;;;;;;;127.18;113.75;;;6.80;99.90;;;;;;4938461;29;20158;-87
2022/01/22 14:22:54;;;;;;;122.40;108.32;;;6.80;99.90;;;;;;4938128;29;20254;-87
2022/01/22 14:25:20;;;;;;;131.80;117.55;;;6.70;99.90;;;;;;4922487;29;20663;-87
2022/01/22 14:28:04;;;;;;;153.20;137.57;;;6.80;99.90;;;;;;4937630;29;20212;-87
2022/01/22 14:30:45;;;;;;;133.50;119.68;;;6.80;99.90;;;;;;4922929;29;20412;-87
2022/01/22 14:33:13;;;;;;;130.65;112.82;;;6.80;99.90;;;;;;4922690;29;20154;-87
2022/01/22 14:35:40;;;;;;;133.00;118.45;;;6.80;99.90;;;;;;4921344;29;20205;-87
2022/01/22 14:44:22;;;;;;;122.93;108.78;;;6.80;99.90;;;;;;4922839;29;20181;-88
2022/01/22 14:47:17;;;;;;;130.30;113.47;;;6.80;99.90;;;;;;4922926;29;20169;-87
2022/01/22 14:50:03;;;;;;;130.02;115.80;;;6.80;99.90;;;;;;4920887;29;20231;-87
2022/01/22 14:52:29;;;;;;;125.65;111.97;;;6.80;99.90;;;;;;4923086;29;20162;-87
2022/01/22 14:55:02;;;;;;;117.33;101.67;;;6.80;99.90;;;;;;4937881;29;20538;-88